Nearby METAR Reports

 

LFRV - Vannes-Meucon, FRANCE
Distance from station: NE 28km
Mise à jour: 21/04/2018 02:00
clair
clair
 Wind from NNE
Vent: NNE 13 km/h
Température: 16°C
Point de rosée: 13°C
Humidité: 83%
Baromètre: 1020 hPa
Résumé: clair
Visibility: greater than 10 km
2018/04/21 00:00 LFRV 210000Z AUTO 03007KT CAVOK 16/13 Q1020
LFRZ - Saint - Nazaire / Montoir, FRANCE
Distance from station: SE 64km
Mise à jour: 21/04/2018 02:00
clair
clair
 Wind from N
Vent: N 6 km/h
Température: 16°C
Point de rosée: 12°C
Humidité: 77%
Baromètre: 1019 hPa
Résumé: clair
Visibility: greater than 10 km
2018/04/21 00:00 LFRZ 210000Z AUTO 35003KT 340V050 CAVOK 16/12 Q1019 NOSIG
 
LFRH - Lorient / Lann- Bihoué, FRANCE
Distance from station: NO 81km
Mise à jour: 21/04/2018 02:00
clair
clair
 Wind from NNE
Vent: NNE 11 km/h
Température: 14°C
Point de rosée: 11°C
Humidité: 82%
Baromètre: 1020 hPa
Résumé: clair
Visibility: greater than 10 km
2018/04/21 00:00 LFRH 210000Z AUTO 03006KT CAVOK 14/11 Q1020 NOSIG
LFRB - Brest - Guipavas, FRANCE
Distance from station: NO 200km
Mise à jour: 21/04/2018 02:00
partiellement nuageux
partiellement nuageux
 Wind from NE
Vent: NE 9 km/h
Température: 10°C
Wind Chill: 9°C
Point de rosée: 10°C
Humidité: 100%
Baromètre: 1021 hPa
Clouds: partiellement nuageux
Visibility: 6 km
2018/04/21 00:00 LFRB 210000Z AUTO 05005KT 6000 NSC 10/10 Q1021 TEMPO 0300 FG VV///
 
LFPV - Villacoublay - Vélizy/, FRANCE
Distance from station: NE 450km
Mise à jour: 21/04/2018 02:00
clair
clair
 Wind from NNE
Vent: NNE 9 km/h
Température: 19°C
Point de rosée: 11°C
Humidité: 60%
Baromètre: 1022 hPa
Résumé: clair
Visibility: greater than 10 km
2018/04/21 00:00 LFPV 210000Z AUTO 03005KT CAVOK 19/11 Q1022 NOSIG
LFRS - Nantes Atlantique, FRANCE
Distance from station: SE 106km
Mise à jour: 21/04/2018 02:00
clair
clair
 Wind from varies
Vent: varies 4 km/h
Température: 19°C
Point de rosée: 14°C
Humidité: 73%
Baromètre: 1019 hPa
Résumé: clair
Visibility: greater than 10 km
2018/04/21 00:00 LFRS 210000Z AUTO VRB02KT CAVOK 19/14 Q1019 NOSIG